Time;durP1;ratioP1;P1;durP2;ratioP2;P2;SDS_P1;SDS_P2;PMS_P1;PMS_P2;Temp;Humidity;BMP_temperature;BMP_pressure;BME280_temperature;BME280_humidity;BME280_pressure;Samples;Min_cycle;Max_cycle;Signal;HPM_P1;HPM_P2
2023/06/28 00:00:15;;;;;;;;;;;;;;;20.40;55.49;100846.50;4861171;29;8469;-70
2023/06/28 00:02:41;;;;;;;;;;;;;;;20.40;55.49;100851.72;4844170;29;6795;-71
2023/06/28 00:05:10;;;;;;;;;;;;;;;20.43;56.05;100845.69;4849237;29;7082;-70
2023/06/28 00:07:36;;;;;;;;;;;;;;;20.43;55.86;100846.56;4859237;29;7224;-71
2023/06/28 00:10:03;;;;;;;;;;;;;;;20.45;56.17;100838.78;4845267;29;6869;-70
2023/06/28 00:12:31;;;;;;;;;;;;;;;20.46;56.39;100848.31;4843342;29;7133;-70
2023/06/28 00:14:58;;;;;;;;;;;;;;;20.47;56.53;100845.75;4843432;29;6950;-70
2023/06/28 00:17:28;;;;;;;;;;;;;;;20.50;56.59;100842.31;4826645;29;7247;-71
2023/06/28 00:20:00;;;;;;;;;;;;;;;20.53;56.47;100844.97;4845517;29;6884;-70
2023/06/28 00:22:32;;;;;;;;;;;;;;;20.56;56.47;100849.34;4858406;29;6785;-71
2023/06/28 00:25:05;;;;;;;;;;;;;;;20.56;55.98;100850.19;4846594;29;7182;-71
2023/06/28 00:27:31;;;;;;;;;;;;;;;20.59;56.42;100855.47;4855302;29;6947;-72
2023/06/28 00:29:57;;;;;;;;;;;;;;;20.60;56.71;100852.00;4839405;29;6975;-69
2023/06/28 00:32:25;;;;;;;;;;;;;;;20.61;56.13;100856.38;4837757;29;7225;-70
2023/06/28 00:34:51;;;;;;;;;;;;;;;20.60;56.11;100859.81;4845032;29;6824;-70
2023/06/28 00:37:16;;;;;;;;;;;;;;;20.59;56.52;100855.47;4844153;29;6788;-72
2023/06/28 00:39:42;;;;;;;;;;;;;;;20.58;56.80;100863.25;4845129;29;6964;-70
2023/06/28 00:42:08;;;;;;;;;;;;;;;20.59;56.65;100860.69;4838921;29;7015;-71
2023/06/28 00:44:34;;;;;;;;;;;;;;;20.58;56.57;100855.44;4846243;29;6955;-70
2023/06/28 00:47:03;;;;;;;;;;;;;;;20.55;56.84;100853.66;4858172;29;7551;-70
2023/06/28 00:49:32;;;;;;;;;;;;;;;20.51;56.34;100859.69;4861947;29;7067;-70
2023/06/28 00:52:00;;;;;;;;;;;;;;;20.47;56.55;100870.91;4861682;29;7085;-70
2023/06/28 00:54:26;;;;;;;;;;;;;;;20.42;56.69;100878.63;4840646;29;7219;-72
2023/06/28 00:56:52;;;;;;;;;;;;;;;20.40;56.64;100873.44;4843107;29;7014;-71
2023/06/28 00:59:18;;;;;;;;;;;;;;;20.40;56.90;100865.63;4852982;29;6856;-69
2023/06/28 01:01:44;;;;;;;;;;;;;;;20.42;56.96;100856.97;4816018;29;7137;-70
2023/06/28 01:04:13;;;;;;;;;;;;;;;20.44;56.92;100865.66;4844954;29;6765;-69
2023/06/28 01:06:43;;;;;;;;;;;;;;;20.46;57.27;100861.34;4843557;29;6864;-70
2023/06/28 01:09:11;;;;;;;;;;;;;;;20.44;56.77;100860.44;4843419;29;6860;-71
2023/06/28 01:11:39;;;;;;;;;;;;;;;20.43;56.66;100861.31;4844416;29;7242;-71
2023/06/28 01:14:06;;;;;;;;;;;;;;;20.42;56.86;100862.16;4844645;29;6936;-70
2023/06/28 01:16:33;;;;;;;;;;;;;;;20.42;57.22;100867.38;4835540;29;7039;-71
2023/06/28 01:19:03;;;;;;;;;;;;;;;20.39;56.83;100863.88;4842413;29;6884;-70
2023/06/28 01:21:37;;;;;;;;;;;;;;;20.36;57.24;100861.22;4841915;29;7332;-70
2023/06/28 01:24:03;;;;;;;;;;;;;;;20.33;57.20;100862.88;4863602;29;6863;-69
2023/06/28 01:26:30;;;;;;;;;;;;;;;20.31;57.60;100859.38;4844832;29;7330;-70
2023/06/28 01:28:57;;;;;;;;;;;;;;;20.29;57.30;100855.91;4843237;29;7135;-70
2023/06/28 01:31:23;;;;;;;;;;;;;;;20.25;57.26;100858.47;4838184;29;7037;-70
2023/06/28 01:33:48;;;;;;;;;;;;;;;20.23;57.57;100856.69;4842714;29;6809;-69
2023/06/28 01:36:14;;;;;;;;;;;;;;;20.22;57.80;100867.94;4839392;29;6780;-72
2023/06/28 01:38:41;;;;;;;;;;;;;;;20.21;58.00;100866.19;4844093;29;6777;-70
2023/06/28 01:41:09;;;;;;;;;;;;;;;20.22;57.94;100865.34;4843386;29;7492;-70
2023/06/28 01:43:35;;;;;;;;;;;;;;;20.19;57.82;100871.38;4841841;29;6961;-70
2023/06/28 01:46:01;;;;;;;;;;;;;;;20.17;57.88;100873.06;4863968;29;6975;-70
2023/06/28 01:48:27;;;;;;;;;;;;;;;20.16;57.77;100870.44;4844113;29;6781;-71
2023/06/28 01:50:53;;;;;;;;;;;;;;;20.12;57.83;100866.91;4844354;29;6792;-70
2023/06/28 01:53:19;;;;;;;;;;;;;;;20.12;58.01;100866.91;4857047;29;7232;-69
2023/06/28 01:55:45;;;;;;;;;;;;;;;20.13;57.52;100866.06;4835691;29;6994;-69
2023/06/28 01:58:10;;;;;;;;;;;;;;;20.16;57.72;100860.03;4859000;29;6801;-70
2023/06/28 02:00:36;;;;;;;;;;;;;;;20.17;57.61;100859.19;4838885;29;6922;-70
2023/06/28 02:03:02;;;;;;;;;;;;;;;20.17;57.67;100860.06;4858359;29;7232;-70
2023/06/28 02:05:27;;;;;;;;;;;;;;;20.16;57.53;100854.81;4839894;29;6836;-71
2023/06/28 02:07:53;;;;;;;;;;;;;;;20.14;57.37;100854.81;4843084;29;6815;-72
2023/06/28 02:10:23;;;;;;;;;;;;;;;20.14;57.64;100856.53;4845621;29;7813;-72
2023/06/28 02:12:49;;;;;;;;;;;;;;;20.14;57.40;100853.94;4847644;29;6805;-72
2023/06/28 02:15:15;;;;;;;;;;;;;;;20.12;57.65;100852.19;4858025;29;6776;-72
2023/06/28 02:17:42;;;;;;;;;;;;;;;20.12;57.88;100859.09;4842290;29;8432;-73
2023/06/28 02:20:10;;;;;;;;;;;;;;;20.14;57.54;100856.53;4863299;29;6830;-72
2023/06/28 02:22:36;;;;;;;;;;;;;;;20.14;57.83;100854.81;4842062;29;6808;-73
2023/06/28 02:25:02;;;;;;;;;;;;;;;20.16;57.37;100849.63;4845254;29;6875;-72
2023/06/28 02:27:28;;;;;;;;;;;;;;;20.17;57.45;100849.66;4844649;29;6788;-72
2023/06/28 02:29:54;;;;;;;;;;;;;;;20.19;57.90;100854.91;4841447;29;6865;-73
2023/06/28 02:32:19;;;;;;;;;;;;;;;20.20;57.76;100844.50;4821464;29;7237;-72
2023/06/28 02:34:45;;;;;;;;;;;;;;;20.22;57.94;100841.91;4853402;29;7002;-73
2023/06/28 02:37:10;;;;;;;;;;;;;;;20.22;57.88;100844.53;4851386;29;6991;-73
2023/06/28 02:39:36;;;;;;;;;;;;;;;20.22;57.96;100844.53;4847647;29;7468;-72
2023/06/28 02:42:02;;;;;;;;;;;;;;;20.22;57.88;100847.13;4843423;29;6820;-72
2023/06/28 02:44:28;;;;;;;;;;;;;;;20.24;57.58;100848.03;4826352;29;6974;-72
2023/06/28 02:46:53;;;;;;;;;;;;;;;20.27;57.84;100845.44;4840342;29;6792;-73
2023/06/28 02:49:19;;;;;;;;;;;;;;;20.28;57.51;100844.63;4842049;29;7215;-72
2023/06/28 02:51:45;;;;;;;;;;;;;;;20.29;57.59;100843.78;4843086;29;6852;-73
2023/06/28 02:54:10;;;;;;;;;;;;;;;20.30;57.05;100832.50;4835131;29;6944;-72
2023/06/28 02:56:36;;;;;;;;;;;;;;;20.30;57.30;100827.31;4849552;29;6852;-73
2023/06/28 02:59:01;;;;;;;;;;;;;;;20.31;57.57;100823.84;4849164;29;6932;-72
2023/06/28 03:01:27;;;;;;;;;;;;;;;20.32;57.55;100830.78;4844287;29;7200;-72
2023/06/28 03:03:53;;;;;;;;;;;;;;;20.34;57.63;100834.28;4847274;29;6769;-72
2023/06/28 03:06:18;;;;;;;;;;;;;;;20.36;57.33;100839.53;4845584;29;7254;-72
2023/06/28 03:08:44;;;;;;;;;;;;;;;20.36;57.37;100845.59;4847489;29;7872;-73
2023/06/28 03:11:10;;;;;;;;;;;;;;;20.38;57.72;100846.50;4844207;29;7029;-73
2023/06/28 03:13:35;;;;;;;;;;;;;;;20.39;57.33;100844.78;4848482;29;6794;-72
2023/06/28 03:16:01;;;;;;;;;;;;;;;20.40;57.54;100844.81;4851559;29;7084;-72
2023/06/28 03:18:27;;;;;;;;;;;;;;;20.40;58.23;100836.09;4862043;29;7441;-72
2023/06/28 03:20:53;;;;;;;;;;;;;;;20.41;57.84;100843.06;4830705;29;7037;-72
2023/06/28 03:23:19;;;;;;;;;;;;;;;20.40;58.27;100834.38;4845835;29;6777;-73
2023/06/28 03:25:44;;;;;;;;;;;;;;;20.40;58.59;100838.69;4840067;29;6898;-72
2023/06/28 03:28:12;;;;;;;;;;;;;;;20.40;57.89;100833.50;4859847;29;6773;-73
2023/06/28 03:30:38;;;;;;;;;;;;;;;20.39;58.27;100843.06;4847261;29;6845;-73
2023/06/28 03:33:04;;;;;;;;;;;;;;;20.37;58.57;100834.31;4860597;29;6809;-72
2023/06/28 03:35:30;;;;;;;;;;;;;;;20.36;58.27;100831.72;4854674;29;8131;-73
2023/06/28 03:37:56;;;;;;;;;;;;;;;20.35;58.36;100832.56;4846751;29;6805;-73
2023/06/28 03:40:22;;;;;;;;;;;;;;;20.34;58.60;100829.09;4864037;29;7240;-73
2023/06/28 03:42:48;;;;;;;;;;;;;;;20.34;58.51;100831.69;4844827;29;6998;-73
2023/06/28 03:45:17;;;;;;;;;;;;;;;20.34;58.74;100829.09;4859169;29;7094;-72
2023/06/28 03:47:43;;;;;;;;;;;;;;;20.33;58.61;100835.16;4843717;29;6976;-72
2023/06/28 03:50:09;;;;;;;;;;;;;;;20.30;58.62;100831.63;4842984;29;6780;-72
2023/06/28 03:52:36;;;;;;;;;;;;;;;20.27;58.50;100832.44;4859308;29;7104;-73
2023/06/28 03:55:03;;;;;;;;;;;;;;;20.23;58.81;100835.88;4844780;29;6797;-72
2023/06/28 03:57:29;;;;;;;;;;;;;;;20.20;59.03;100835.81;4855225;29;7078;-72
2023/06/28 03:59:55;;;;;;;;;;;;;;;20.18;58.91;100832.28;4863143;29;6784;-72
2023/06/28 04:02:21;;;;;;;;;;;;;;;20.18;59.37;100829.69;4853628;29;6784;-72
2023/06/28 04:04:47;;;;;;;;;;;;;;;20.19;59.51;100834.94;4856048;29;7238;-72
2023/06/28 04:07:13;;;;;;;;;;;;;;;20.20;59.42;100821.06;4843612;29;6792;-72
2023/06/28 04:09:39;;;;;;;;;;;;;;;20.23;59.52;100821.13;4825537;29;6824;-72
2023/06/28 04:12:06;;;;;;;;;;;;;;;20.25;59.45;100821.13;4823879;29;6853;-72
2023/06/28 04:14:31;;;;;;;;;;;;;;;20.30;59.27;100823.81;4825167;29;6981;-72
2023/06/28 04:16:57;;;;;;;;;;;;;;;20.36;59.38;100821.31;4837361;29;7325;-72
2023/06/28 04:19:22;;;;;;;;;;;;;;;20.42;59.88;100820.50;4828353;29;6789;-73
2023/06/28 04:21:48;;;;;;;;;;;;;;;20.50;59.43;100818.91;4834398;29;6850;-73
2023/06/28 04:24:14;;;;;;;;;;;;;;;20.57;59.53;100819.84;4857812;29;7275;-72
2023/06/28 04:26:39;;;;;;;;;;;;;;;20.62;59.43;100819.06;4839191;29;6793;-72
2023/06/28 04:29:05;;;;;;;;;;;;;;;20.67;59.65;100817.41;4842343;29;6776;-72
2023/06/28 04:31:31;;;;;;;;;;;;;;;20.72;59.57;100821.78;4825654;29;6853;-72
2023/06/28 04:33:57;;;;;;;;;;;;;;;20.75;59.22;100822.69;4848352;29;6905;-73
2023/06/28 04:36:26;;;;;;;;;;;;;;;20.76;59.10;100821.84;4842706;29;6828;-73
2023/06/28 04:38:54;;;;;;;;;;;;;;;20.79;59.25;100821.00;4855252;29;6940;-72
2023/06/28 04:41:27;;;;;;;;;;;;;;;20.79;59.13;100818.41;4843167;29;7217;-72
2023/06/28 04:43:55;;;;;;;;;;;;;;;20.83;59.10;100827.16;4843494;29;6797;-72
2023/06/28 04:46:28;;;;;;;;;;;;;;;20.85;59.26;100826.31;4840793;29;6900;-72
2023/06/28 04:48:59;;;;;;;;;;;;;;;20.88;59.14;100826.38;4843831;29;6805;-73
2023/06/28 04:51:25;;;;;;;;;;;;;;;20.92;59.15;100824.69;4854215;29;6900;-72
2023/06/28 04:53:50;;;;;;;;;;;;;;;20.96;59.16;100821.22;4824919;29;7221;-72
2023/06/28 04:56:17;;;;;;;;;;;;;;;21.01;58.98;100819.56;4858995;29;7954;-73
2023/06/28 04:58:43;;;;;;;;;;;;;;;21.02;59.33;100817.81;4837169;29;6793;-75
2023/06/28 05:01:09;;;;;;;;;;;;;;;21.04;59.18;100824.81;4840905;29;6970;-72
2023/06/28 05:03:38;;;;;;;;;;;;;;;21.05;58.82;100817.84;4841304;29;6801;-72
2023/06/28 05:06:07;;;;;;;;;;;;;;;21.07;59.04;100831.78;4858694;29;6940;-73
2023/06/28 05:08:33;;;;;;;;;;;;;;;21.08;58.82;100820.50;4834699;29;6998;-74
2023/06/28 05:10:59;;;;;;;;;;;;;;;21.10;58.63;100824.00;4841854;29;6955;-73
2023/06/28 05:13:25;;;;;;;;;;;;;;;21.11;58.93;100822.28;4844292;29;7065;-73
2023/06/28 05:15:51;;;;;;;;;;;;;;;21.11;58.60;100815.31;4828915;29;7191;-73
2023/06/28 05:18:20;;;;;;;;;;;;;;;21.12;58.86;100830.09;4856798;29;7306;-73
2023/06/28 05:20:47;;;;;;;;;;;;;;;21.14;58.73;100823.16;4865159;29;6874;-73
2023/06/28 05:23:18;;;;;;;;;;;;;;;21.20;59.20;100833.66;4838129;29;7210;-73
2023/06/28 05:25:45;;;;;;;;;;;;;;;21.26;58.95;100837.22;4864869;29;6988;-73
2023/06/28 05:28:14;;;;;;;;;;;;;;;21.30;58.82;100825.94;4837323;29;6784;-74
2023/06/28 05:30:41;;;;;;;;;;;;;;;21.33;58.76;100826.84;4839347;29;6999;-74
2023/06/28 05:33:07;;;;;;;;;;;;;;;21.41;59.41;100836.50;4844162;29;6812;-74
2023/06/28 05:35:35;;;;;;;;;;;;;;;21.46;59.17;100834.78;4843538;29;6793;-73
2023/06/28 05:38:01;;;;;;;;;;;;;;;21.55;59.08;100834.03;4842104;29;6789;-73
2023/06/28 05:40:28;;;;;;;;;;;;;;;21.62;58.98;100831.47;4840905;29;7269;-74
2023/06/28 05:42:55;;;;;;;;;;;;;;;21.70;59.07;100834.19;4841933;29;6824;-73
2023/06/28 05:45:21;;;;;;;;;;;;;;;21.76;58.63;100829.03;4855878;29;7257;-73
2023/06/28 05:47:48;;;;;;;;;;;;;;;21.82;58.78;100837.75;4866375;29;7446;-74
2023/06/28 05:50:15;;;;;;;;;;;;;;;21.83;58.55;100823.88;4842255;29;6797;-72
2023/06/28 05:52:43;;;;;;;;;;;;;;;21.84;58.30;100823.88;4845407;29;6797;-74
2023/06/28 05:55:09;;;;;;;;;;;;;;;21.88;58.49;100827.38;4840653;29;7319;-73
2023/06/28 05:57:35;;;;;;;;;;;;;;;21.90;58.45;100828.25;4842874;29;6890;-73
2023/06/28 06:00:03;;;;;;;;;;;;;;;21.92;58.63;100830.03;4839567;29;6852;-74
2023/06/28 06:02:29;;;;;;;;;;;;;;;21.95;58.28;100828.28;4841850;29;6846;-73
2023/06/28 06:04:55;;;;;;;;;;;;;;;21.96;58.12;100830.94;4859303;29;7083;-73
2023/06/28 06:07:20;;;;;;;;;;;;;;;21.97;58.11;100832.66;4859121;29;6772;-74
2023/06/28 06:09:46;;;;;;;;;;;;;;;21.98;57.83;100830.94;4842919;29;6870;-73
2023/06/28 06:12:11;;;;;;;;;;;;;;;21.98;57.60;100830.94;4823415;29;7409;-74
2023/06/28 06:14:37;;;;;;;;;;;;;;;21.97;57.68;100832.66;4839694;29;6816;-73
2023/06/28 06:17:03;;;;;;;;;;;;;;;22.00;57.68;100831.81;4843251;29;6797;-75
2023/06/28 06:19:28;;;;;;;;;;;;;;;22.04;57.77;100833.59;4840475;29;6859;-73
2023/06/28 06:21:54;;;;;;;;;;;;;;;22.04;57.36;100831.84;4844251;29;6772;-73
2023/06/28 06:24:19;;;;;;;;;;;;;;;22.04;57.00;100829.25;4840861;29;8568;-74
2023/06/28 06:26:45;;;;;;;;;;;;;;;22.06;57.68;100826.63;4837248;29;6804;-74
2023/06/28 06:29:11;;;;;;;;;;;;;;;22.12;57.67;100831.06;4822875;29;6948;-74
2023/06/28 06:31:36;;;;;;;;;;;;;;;22.20;57.69;100830.22;4860866;29;6793;-74
2023/06/28 06:34:02;;;;;;;;;;;;;;;22.29;57.35;100825.94;4842517;29;6771;-73
2023/06/28 06:36:28;;;;;;;;;;;;;;;22.36;57.29;100827.72;4842294;29;7809;-73
2023/06/28 06:38:55;;;;;;;;;;;;;;;22.38;57.34;100820.75;4843427;29;6813;-73
2023/06/28 06:41:22;;;;;;;;;;;;;;;22.42;56.82;100829.50;4825229;29;7441;-74
2023/06/28 06:43:48;;;;;;;;;;;;;;;22.45;56.71;100819.06;4855508;29;7235;-73
2023/06/28 06:46:14;;;;;;;;;;;;;;;22.48;56.91;100824.28;4842426;29;6809;-74
2023/06/28 06:48:39;;;;;;;;;;;;;;;22.52;56.57;100820.88;4843464;29;6801;-74
2023/06/28 06:51:06;;;;;;;;;;;;;;;22.54;56.85;100821.75;4840721;29;6972;-70
2023/06/28 06:53:32;;;;;;;;;;;;;;;22.58;56.34;100820.88;4831137;29;7296;-74
2023/06/28 06:55:59;;;;;;;;;;;;;;;22.58;55.86;100828.72;4848918;29;6793;-73
2023/06/28 06:58:25;;;;;;;;;;;;;;;22.57;55.70;100821.75;4850638;29;6789;-73
2023/06/28 07:00:52;;;;;;;;;;;;;;;22.53;55.67;100822.63;4850672;29;6861;-72
2023/06/28 07:03:20;;;;;;;;;;;;;;;22.53;55.92;100826.94;4848085;29;6796;-73
2023/06/28 07:05:46;;;;;;;;;;;;;;;22.55;55.99;100817.38;4842834;29;8765;-74
2023/06/28 07:08:12;;;;;;;;;;;;;;;22.58;55.58;100826.09;4843924;29;6773;-73
2023/06/28 07:10:37;;;;;;;;;;;;;;;22.64;55.67;100819.19;4843766;29;6796;-73
2023/06/28 07:13:03;;;;;;;;;;;;;;;22.69;55.52;100820.06;4847286;29;6765;-73
2023/06/28 07:15:29;;;;;;;;;;;;;;;22.75;55.20;100822.72;4858748;29;6847;-73
2023/06/28 07:17:55;;;;;;;;;;;;;;;22.81;55.06;100822.75;4875599;29;6820;-72
2023/06/28 07:20:22;;;;;;;;;;;;;;;22.85;55.23;100821.03;4863030;29;6789;-74
2023/06/28 07:22:48;;;;;;;;;;;;;;;22.93;55.35;100823.66;4870186;29;6878;-73
2023/06/28 07:25:13;;;;;;;;;;;;;;;22.99;55.23;100815.84;4866525;29;6785;-73
2023/06/28 07:27:39;;;;;;;;;;;;;;;23.09;55.16;100815.00;4849098;29;6777;-73
2023/06/28 07:30:07;;;;;;;;;;;;;;;23.25;55.42;100820.25;4851301;29;6812;-74
2023/06/28 07:32:33;;;;;;;;;;;;;;;23.35;54.47;100819.44;4851986;29;6789;-73
2023/06/28 07:35:00;;;;;;;;;;;;;;;23.44;54.55;100824.66;4854424;29;6777;-72
2023/06/28 07:37:26;;;;;;;;;;;;;;;23.52;54.03;100822.09;4873928;29;6808;-73
2023/06/28 07:39:52;;;;;;;;;;;;;;;23.58;54.08;100822.06;4853484;29;6788;-73
2023/06/28 07:42:19;;;;;;;;;;;;;;;23.67;53.97;100813.38;4855766;29;7237;-73
2023/06/28 07:44:45;;;;;;;;;;;;;;;23.81;53.87;100815.09;4871911;29;7272;-73
2023/06/28 07:47:11;;;;;;;;;;;;;;;23.98;53.91;100813.34;4869628;29;7245;-73
2023/06/28 07:49:38;;;;;;;;;;;;;;;24.20;53.24;100809.88;4881408;29;6757;-73
2023/06/28 07:52:04;;;;;;;;;;;;;;;24.36;52.84;100806.31;4870971;29;7159;-74
2023/06/28 07:54:30;;;;;;;;;;;;;;;24.43;52.43;100806.31;4855719;29;6796;-73
2023/06/28 07:56:56;;;;;;;;;;;;;;;24.44;51.95;100808.94;4855687;29;6814;-73
2023/06/28 07:59:22;;;;;;;;;;;;;;;24.39;51.63;100811.56;4853093;29;7187;-73
2023/06/28 08:01:48;;;;;;;;;;;;;;;24.32;50.98;100812.44;4871775;29;6972;-73
2023/06/28 08:04:17;;;;;;;;;;;;;;;24.29;51.53;100817.69;4877465;29;7250;-72
2023/06/28 08:06:45;;;;;;;;;;;;;;;24.26;51.36;100821.19;4858323;29;7229;-72
2023/06/28 08:09:11;;;;;;;;;;;;;;;24.22;50.59;100806.34;4878751;29;6990;-73
2023/06/28 08:11:37;;;;;;;;;;;;;;;24.20;50.76;100815.97;4878447;29;6844;-73
2023/06/28 08:14:03;;;;;;;;;;;;;;;24.20;50.44;100815.09;4862166;29;6969;-73
2023/06/28 08:16:28;;;;;;;;;;;;;;;24.18;50.61;100815.09;4857333;29;6772;-74
2023/06/28 08:18:54;;;;;;;;;;;;;;;24.19;50.34;100818.56;4862774;29;7210;-74
2023/06/28 08:21:20;;;;;;;;;;;;;;;24.20;50.80;100815.97;4850802;29;6969;-73
2023/06/28 08:23:45;;;;;;;;;;;;;;;24.24;50.24;100815.09;4851258;29;6972;-74
2023/06/28 08:26:11;;;;;;;;;;;;;;;24.27;50.33;100817.69;4853598;29;6837;-73
2023/06/28 08:28:36;;;;;;;;;;;;;;;24.31;50.60;100815.06;4837456;29;6975;-74
2023/06/28 08:31:02;;;;;;;;;;;;;;;24.39;50.39;100814.19;4852309;29;6773;-73
2023/06/28 08:33:28;;;;;;;;;;;;;;;24.49;50.14;100815.00;4855330;29;6769;-73
2023/06/28 08:35:53;;;;;;;;;;;;;;;24.54;50.23;100808.03;4853063;29;6789;-73
2023/06/28 08:38:19;;;;;;;;;;;;;;;24.62;50.05;100817.56;4853861;29;6781;-74
2023/06/28 08:40:44;;;;;;;;;;;;;;;24.67;49.70;100818.44;4849253;29;6793;-73
2023/06/28 08:43:15;;;;;;;;;;;;;;;24.72;49.18;100827.13;4833379;29;7254;-73
2023/06/28 08:45:44;;;;;;;;;;;;;;;24.74;48.99;100821.91;4865830;29;6796;-74
2023/06/28 08:48:12;;;;;;;;;;;;;;;24.76;49.22;100826.28;4852494;29;6963;-74
2023/06/28 08:50:40;;;;;;;;;;;;;;;24.79;49.02;100826.28;4866144;29;7298;-74
2023/06/28 08:53:09;;;;;;;;;;;;;;;24.84;48.84;100825.41;4853527;29;6805;-73
2023/06/28 08:55:37;;;;;;;;;;;;;;;24.89;49.27;100821.00;4833511;29;7059;-74
2023/06/28 08:58:05;;;;;;;;;;;;;;;24.93;49.03;100818.34;4867779;29;7244;-74
2023/06/28 09:00:30;;;;;;;;;;;;;;;24.95;48.58;100826.22;4870079;29;6809;-74
2023/06/28 09:02:57;;;;;;;;;;;;;;;24.95;48.71;100820.97;4835694;29;6955;-74
2023/06/28 09:05:23;;;;;;;;;;;;;;;24.98;48.51;100820.94;4852176;29;6785;-74
2023/06/28 09:07:54;;;;;;;;;;;;;;;24.97;47.93;100824.47;4851680;29;6777;-73
2023/06/28 09:10:20;;;;;;;;;;;;;;;24.93;47.79;100823.59;4847880;29;6817;-75
2023/06/28 09:12:48;;;;;;;;;;;;;;;24.89;47.73;100821.88;4846707;29;6947;-72
2023/06/28 09:15:16;;;;;;;;;;;;;;;24.85;47.94;100824.53;4839233;29;7258;-70
2023/06/28 09:17:42;;;;;;;;;;;;;;;24.82;47.83;100822.78;4842944;29;7100;-72
2023/06/28 09:20:28;;;;;;;;;;;;;;;24.72;48.14;100824.53;4845014;29;6873;-71
2023/06/28 09:22:56;;;;;;;;;;;;;;;24.76;47.72;100822.75;4840796;29;6809;-72
2023/06/28 09:25:23;;;;;;;;;;;;;;;24.76;47.13;100821.03;4857227;29;6808;-72
2023/06/28 09:27:49;;;;;;;;;;;;;;;24.74;47.67;100821.91;4842786;29;6788;-71
2023/06/28 09:30:18;;;;;;;;;;;;;;;24.72;47.20;100814.03;4853979;29;6800;-71
2023/06/28 09:32:50;;;;;;;;;;;;;;;24.73;47.17;100810.56;4840081;29;6987;-71
2023/06/28 09:35:17;;;;;;;;;;;;;;;24.78;47.04;100815.81;4841573;29;6878;-72
2023/06/28 09:37:48;;;;;;;;;;;;;;;24.86;47.35;100810.53;4823457;29;6987;-71
2023/06/28 09:40:17;;;;;;;;;;;;;;;24.97;47.08;100819.22;4839612;29;6804;-72
2023/06/28 09:42:48;;;;;;;;;;;;;;;25.13;47.27;100812.13;4846586;29;6808;-72
2023/06/28 09:45:36;;;;;;;;;;;;;;;25.37;47.05;100816.34;4842495;29;6819;-71
2023/06/28 09:48:04;;;;;;;;;;;;;;;25.65;47.08;100817.94;4854990;29;6821;-71
2023/06/28 09:50:38;;;;;;;;;;;;;;;25.93;46.79;100812.44;4863047;29;6872;-72
2023/06/28 09:53:15;;;;;;;;;;;;;;;26.21;46.26;100812.19;4839635;29;6809;-71
2023/06/28 09:55:44;;;;;;;;;;;;;;;26.40;45.60;100823.38;4835414;29;7246;-69
2023/06/28 09:58:15;;;;;;;;;;;;;;;26.54;45.25;100806.56;4841239;29;6876;-72
2023/06/28 10:00:44;;;;;;;;;;;;;;;26.69;44.64;100813.38;4839213;29;6789;-73
2023/06/28 10:03:12;;;;;;;;;;;;;;;26.81;44.04;100812.38;4841300;29;6813;-72
2023/06/28 10:05:41;;;;;;;;;;;;;;;26.95;44.08;100813.09;4842731;29;6792;-73
2023/06/28 10:08:14;;;;;;;;;;;;;;;27.14;44.18;100811.06;4839811;29;6989;-72
2023/06/28 10:10:42;;;;;;;;;;;;;;;27.31;43.69;100813.44;4840095;29;6943;-73
2023/06/28 10:13:21;;;;;;;;;;;;;;;27.42;42.83;100815.03;4861349;29;7247;-69
2023/06/28 10:16:17;;;;;;;;;;;;;;;27.46;42.87;100811.47;4838943;29;6824;-72
2023/06/28 10:18:43;;;;;;;;;;;;;;;27.52;42.63;100805.22;4856774;29;7224;-72
2023/06/28 10:21:09;;;;;;;;;;;;;;;27.63;42.52;100807.72;4856065;29;6935;-72
2023/06/28 10:23:39;;;;;;;;;;;;;;;27.69;41.76;100812.88;4842494;29;6785;-72
2023/06/28 10:26:05;;;;;;;;;;;;;;;27.72;42.29;100808.44;4838591;29;7195;-71
2023/06/28 10:28:35;;;;;;;;;;;;;;;27.81;42.17;100812.66;4855137;29;7152;-71
2023/06/28 10:31:04;;;;;;;;;;;;;;;27.89;41.29;100809.03;4835603;29;6791;-70
2023/06/28 10:33:31;;;;;;;;;;;;;;;27.92;41.52;100808.97;4858967;29;6972;-70
2023/06/28 10:36:02;;;;;;;;;;;;;;;27.93;41.39;100797.56;4835945;29;7020;-70
2023/06/28 10:38:43;;;;;;;;;;;;;;;27.98;41.01;100793.06;4841550;29;6821;-70
2023/06/28 10:41:16;;;;;;;;;;;;;;;27.97;40.68;100796.59;4841754;29;6793;-70
2023/06/28 10:43:43;;;;;;;;;;;;;;;27.94;41.04;100794.03;4835312;29;6996;-70
2023/06/28 10:46:23;;;;;;;;;;;;;;;27.90;40.88;100793.19;4854543;29;7004;-69
2023/06/28 10:48:53;;;;;;;;;;;;;;;27.89;40.71;100790.59;4840829;29;7006;-70
2023/06/28 10:51:27;;;;;;;;;;;;;;;27.91;40.67;100796.69;4840000;29;6891;-71
2023/06/28 10:54:10;;;;;;;;;;;;;;;27.93;40.32;100790.50;4843049;29;10104;-72
2023/06/28 10:57:07;;;;;;;;;;;;;;;28.01;40.19;100787.75;4840517;29;6824;-70
2023/06/28 10:59:39;;;;;;;;;;;;;;;28.09;40.55;100779.69;4836519;29;6820;-71
2023/06/28 11:02:05;;;;;;;;;;;;;;;28.24;39.61;100778.56;4841638;29;6969;-71
2023/06/28 11:04:31;;;;;;;;;;;;;;;28.34;39.48;100780.09;4842110;29;6976;-71
2023/06/28 11:07:02;;;;;;;;;;;;;;;28.54;39.90;100781.47;4835906;29;6995;-72
2023/06/28 11:09:29;;;;;;;;;;;;;;;28.73;39.67;100775.78;4842097;29;6883;-70
2023/06/28 11:11:58;;;;;;;;;;;;;;;28.94;39.06;100775.34;4853673;29;6800;-71
2023/06/28 11:14:25;;;;;;;;;;;;;;;29.11;39.32;100779.34;4843059;29;6816;-71
2023/06/28 11:17:03;;;;;;;;;;;;;;;29.25;38.79;100784.31;4854699;29;6789;-71
2023/06/28 11:19:29;;;;;;;;;;;;;;;29.37;38.34;100778.72;4856312;29;7900;-70
2023/06/28 11:21:57;;;;;;;;;;;;;;;29.44;37.67;100782.09;4828366;29;7273;-72
2023/06/28 11:24:28;;;;;;;;;;;;;;;29.58;37.53;100775.63;4843304;29;6860;-70
2023/06/28 11:26:54;;;;;;;;;;;;;;;29.82;37.29;100778.50;4845448;29;6793;-71
2023/06/28 11:29:21;;;;;;;;;;;;;;;30.06;37.24;100779.66;4860912;29;7076;-71
2023/06/28 11:31:58;;;;;;;;;;;;;;;30.35;37.23;100768.28;4843401;29;6780;-71
2023/06/28 11:34:30;;;;;;;;;;;;;;;30.65;36.67;100767.41;4847606;29;6839;-71
2023/06/28 11:36:57;;;;;;;;;;;;;;;30.87;36.14;100770.28;4843114;29;6805;-70
2023/06/28 11:39:23;;;;;;;;;;;;;;;31.08;36.34;100773.16;4846779;29;7479;-70
2023/06/28 11:41:49;;;;;;;;;;;;;;;31.38;35.55;100773.09;4845895;29;6768;-71
2023/06/28 11:44:15;;;;;;;;;;;;;;;31.70;35.59;100760.53;4842745;29;6777;-71
2023/06/28 11:46:45;;;;;;;;;;;;;;;31.99;35.01;100766.63;4861457;29;6800;-71
2023/06/28 11:49:13;;;;;;;;;;;;;;;32.22;34.49;100764.06;4844626;29;6809;-72
2023/06/28 11:51:39;;;;;;;;;;;;;;;32.39;34.06;100758.13;4839676;29;7086;-71
2023/06/28 11:54:06;;;;;;;;;;;;;;;32.58;33.91;100768.03;4854021;29;7188;-72
2023/06/28 11:56:37;;;;;;;;;;;;;;;32.86;33.63;100761.66;4843928;29;6940;-72
2023/06/28 11:59:29;;;;;;;;;;;;;;;33.20;32.63;100761.16;4824547;29;6836;-71
2023/06/28 12:02:07;;;;;;;;;;;;;;;33.39;32.07;100755.91;4836317;29;7151;-72
2023/06/28 12:04:36;;;;;;;;;;;;;;;33.58;31.95;100755.16;4864410;29;7052;-71
2023/06/28 12:07:04;;;;;;;;;;;;;;;33.66;31.61;100758.34;4840720;29;7108;-70
2023/06/28 12:09:36;;;;;;;;;;;;;;;33.67;31.43;100751.25;4842239;29;6812;-72
2023/06/28 12:12:07;;;;;;;;;;;;;;;33.59;30.65;100746.25;4833170;29;7002;-72
2023/06/28 12:14:44;;;;;;;;;;;;;;;33.57;30.86;100748.13;4840099;29;6845;-72
2023/06/28 12:17:10;;;;;;;;;;;;;;;33.57;30.56;100752.59;4839364;29;7367;-71
2023/06/28 12:19:36;;;;;;;;;;;;;;;33.48;30.47;100746.75;4843627;29;7145;-71
2023/06/28 12:22:05;;;;;;;;;;;;;;;33.39;30.40;100758.56;4845781;29;6784;-72
2023/06/28 12:24:36;;;;;;;;;;;;;;;33.51;31.03;100753.69;4841103;29;8499;-70
2023/06/28 12:27:05;;;;;;;;;;;;;;;33.75;30.75;100740.28;4842281;29;7013;-71
2023/06/28 12:29:35;;;;;;;;;;;;;;;34.05;30.55;100738.09;4853644;29;7504;-71
2023/06/28 12:32:16;;;;;;;;;;;;;;;34.36;30.04;100741.09;4838906;29;7033;-70
2023/06/28 12:34:50;;;;;;;;;;;;;;;34.54;29.25;100742.09;4839367;29;6809;-70
2023/06/28 12:37:16;;;;;;;;;;;;;;;34.55;28.63;100735.81;4855717;29;7251;-70
2023/06/28 12:39:43;;;;;;;;;;;;;;;34.68;28.52;100735.22;4846265;29;6967;-72
2023/06/28 12:42:17;;;;;;;;;;;;;;;34.92;28.44;100727.81;4846146;29;7085;-70
2023/06/28 12:44:50;;;;;;;;;;;;;;;35.06;28.44;100728.97;4841449;29;6857;-70
2023/06/28 12:47:22;;;;;;;;;;;;;;;35.13;28.47;100723.28;4843202;29;7176;-71
2023/06/28 12:49:50;;;;;;;;;;;;;;;35.21;28.22;100716.69;4858266;29;7107;-71